釧路 の空港の天気 - METARとTAF

釧路空港 ( RJCK / KUH ) - 北海道釧路市
飛行場実況気象(Metar)
観測時間08/17 12:00 JST (08/17 03:00 UTC)
風向・風速北東 3m/s
視程10km以上
天気現象
少しの雲 雲底高度 240m
全天の8割程度の雲 雲底高度 300m
全天の8割程度の雲 雲底高度 460m
気温18℃
湿度83%
気圧1015hPa
METARRJCK 170300Z 05006KT 010V080 9999 FEW008 BKN010 BKN015 18/15 Q1015
過去の天気等 Google飛行場航空写真 Wunderground天気予報

過去48時間のMETAR

飛行場予報(TAF)
発表時間: 8/17 11:03 JST (8/17 02:03 UTC)
予報対象時間: 17日11時 JST ~ 18日15時 JST
風向・風速北東 3m/s
視程10km以上
少しの雲 雲底高度 150m
全天の8割程度の雲 雲底高度 460m
17日11時 JST ~ 17日18時 JST に一時的に
少しの雲 雲底高度 60m
全天の8割程度の雲 雲底高度 240m
17日18時 JST ~ 17日21時 JST に一時的に
視程3,000m
天気現象もや
少しの雲 雲底高度 60m
全天の8割程度の雲 雲底高度 150m
17日21時 JST ~ 18日6時 JST に一時的に
視程1,500m
天気現象弱いしゅう雨 もや
少しの雲 雲底高度 30m
全天の8割程度の雲 雲底高度 90m
18日6時 JST ~ 18日12時 JST に一時的に
視程3,000m
天気現象もや
少しの雲 雲底高度 60m
全天の8割程度の雲 雲底高度 150m
TAF AMD RJCK 170203Z 1702/1806 04005KT 9999 FEW005 BKN015
TEMPO 1702/1709 FEW002 BKN008
TEMPO 1709/1712 3000 BR FEW002 BKN005
TEMPO 1712/1721 1500 -SHRA BR FEW001 BKN003
TEMPO 1721/1803 3000 BR FEW002 BKN005
日本の空港のMETAR・TAFへのリンク

RJTT 東京国際空港
RJAA 新東京国際空港
RJBB 関西国際空港
RJOO 大阪空港
RJGG 中部国際空港
RJCC 新千歳空港
RJFF 福岡空港
ROAH 那覇空港


RJEC 旭川空港
RJCH 函館空港
RJCK 釧路空港
RJCM 女満別空港
RJCB 帯広空港
RJSA 青森空港
RJSS 仙台空港
RJSK 秋田空港
RJSF 福島空港
RJAH 茨城空港
RJSN 新潟空港
RJNT 富山空港
RJNK 小松飛行場
RJNS 静岡空港
RJOH 美保飛行場
RJOC 出雲空港
RJOB 岡山空港
RJOA 広島空港
RJOI 岩国飛行場
RJOT 高松空港
RJOM 松山空港
RJOK 高知空港
RJFR 北九州空港
RJFT 熊本空港
RJFU 長崎空港
RJFS 佐賀空港
RJFO 大分空港
RJFM 宮崎空港
RJFK 鹿児島空港
ROIG 石垣島空港
RJTY 横田飛行場
ROTM 普天間飛行場
RODN 嘉手納飛行場